createdAt,value
2019-03-24T00:02:18.477Z,6.30
2019-03-24T00:07:14.685Z,6.10
2019-03-24T00:12:11.965Z,6.00
2019-03-24T00:17:08.228Z,6.00
2019-03-24T00:22:05.259Z,5.90
2019-03-24T00:27:01.528Z,5.70
2019-03-24T00:31:58.838Z,5.70
2019-03-24T00:36:55.971Z,5.40
2019-03-24T00:41:52.080Z,5.40
2019-03-24T00:46:48.332Z,5.40
2019-03-24T00:51:44.520Z,5.40
2019-03-24T00:56:40.659Z,5.40
2019-03-24T01:01:37.080Z,5.30
2019-03-24T01:06:33.277Z,5.30
2019-03-24T01:11:32.597Z,5.20
2019-03-24T01:16:31.278Z,5.10
2019-03-24T01:21:27.372Z,4.90
2019-03-24T01:26:23.487Z,4.80
2019-03-24T01:31:19.559Z,4.90
2019-03-24T01:36:15.726Z,4.90
2019-03-24T01:41:12.359Z,4.90
2019-03-24T01:46:09.679Z,4.90
2019-03-24T01:51:05.780Z,4.80
2019-03-24T01:56:01.938Z,4.80
2019-03-24T02:00:58.157Z,4.70
2019-03-24T02:05:55.476Z,4.60
2019-03-24T02:10:52.953Z,4.50
2019-03-24T02:15:49.146Z,4.40
2019-03-24T02:20:45.245Z,4.30
2019-03-24T02:25:41.468Z,4.20
2019-03-24T02:30:37.508Z,4.20
2019-03-24T02:35:34.090Z,4.30
2019-03-24T02:40:33.211Z,4.20
2019-03-24T02:45:29.420Z,4.10
2019-03-24T02:50:25.460Z,4.10
2019-03-24T02:55:21.573Z,4.10
2019-03-24T03:00:18.224Z,4.00
2019-03-24T03:05:14.524Z,4.10
2019-03-24T03:10:12.063Z,4.10
2019-03-24T03:15:10.903Z,4.00
2019-03-24T03:20:08.532Z,3.90
2019-03-24T03:25:05.793Z,3.90
2019-03-24T03:30:01.920Z,3.80
2019-03-24T03:34:58.017Z,3.70
2019-03-24T03:39:57.919Z,3.60
2019-03-24T03:44:52.679Z,3.50
2019-03-24T03:49:48.803Z,3.60
2019-03-24T03:54:44.938Z,3.60
2019-03-24T03:59:41.091Z,3.60
2019-03-24T04:04:37.520Z,3.50
2019-03-24T04:09:33.621Z,3.40
2019-03-24T04:14:29.833Z,3.40
2019-03-24T04:19:25.929Z,3.40
2019-03-24T04:24:22.041Z,3.40
2019-03-24T04:29:18.064Z,3.30
2019-03-24T04:34:14.293Z,3.40
2019-03-24T04:39:10.391Z,3.30
2019-03-24T04:44:06.533Z,3.20
2019-03-24T04:49:03.710Z,3.10
2019-03-24T04:53:59.760Z,3.10
2019-03-24T04:58:55.801Z,3.10
2019-03-24T05:03:51.993Z,3.00
2019-03-24T05:08:48.395Z,3.10
2019-03-24T05:13:44.548Z,3.10
2019-03-24T05:18:40.631Z,3.10
2019-03-24T05:23:37.830Z,3.10
2019-03-24T05:28:33.941Z,3.20
2019-03-24T05:33:30.054Z,3.20
2019-03-24T05:38:26.151Z,3.20
2019-03-24T05:43:22.368Z,3.30
2019-03-24T05:48:18.459Z,3.40
2019-03-24T05:53:14.499Z,3.50
2019-03-24T05:58:11.583Z,3.60
2019-03-24T06:03:07.937Z,3.80
2019-03-24T06:08:04.055Z,4.00
2019-03-24T06:13:00.284Z,4.20
2019-03-24T06:17:56.567Z,4.50
2019-03-24T06:22:53.724Z,4.60
2019-03-24T06:27:49.862Z,4.80
2019-03-24T06:32:45.985Z,5.00
2019-03-24T06:37:42.171Z,5.10
2019-03-24T06:42:38.299Z,5.40
2019-03-24T06:47:34.558Z,5.70
2019-03-24T06:52:30.804Z,5.90
2019-03-24T06:57:26.944Z,6.20
2019-03-24T07:02:22.959Z,6.40
2019-03-24T07:07:20.260Z,6.70
2019-03-24T07:12:16.304Z,6.90
2019-03-24T07:17:12.474Z,7.20
2019-03-24T07:22:08.520Z,7.50
2019-03-24T07:27:04.565Z,7.80
2019-03-24T07:32:00.774Z,8.10
2019-03-24T07:36:57.013Z,8.40
2019-03-24T07:41:53.258Z,8.70
2019-03-24T07:46:49.532Z,9.00
2019-03-24T07:51:45.789Z,9.40
2019-03-24T07:56:42.047Z,9.70
2019-03-24T08:01:38.453Z,10.00
2019-03-24T08:06:34.623Z,10.40
2019-03-24T08:11:30.890Z,10.80
2019-03-24T08:16:27.011Z,11.20
2019-03-24T08:21:23.176Z,11.60
2019-03-24T08:26:19.417Z,11.90
2019-03-24T08:31:15.573Z,12.30
2019-03-24T08:36:11.812Z,12.70
2019-03-24T08:41:08.013Z,13.10
2019-03-24T08:46:04.298Z,13.50
2019-03-24T08:51:00.598Z,13.80
2019-03-24T08:55:58.081Z,14.20
2019-03-24T09:00:54.310Z,14.50
2019-03-24T09:05:52.139Z,14.70
2019-03-24T09:10:49.942Z,15.00
2019-03-24T09:15:46.113Z,15.30
2019-03-24T09:20:42.179Z,15.60
2019-03-24T09:25:38.241Z,15.80
2019-03-24T09:30:38.575Z,16.10
2019-03-24T09:35:34.809Z,16.20
2019-03-24T09:40:35.475Z,16.60
2019-03-24T09:45:32.034Z,16.90
2019-03-24T09:50:29.661Z,17.20
2019-03-24T09:55:25.788Z,17.50
2019-03-24T10:00:21.957Z,17.80
2019-03-24T10:05:18.066Z,18.00
2019-03-24T10:10:14.167Z,18.30
2019-03-24T10:15:10.519Z,18.50
2019-03-24T10:20:06.839Z,18.80
2019-03-24T10:25:02.995Z,19.20
2019-03-24T10:29:59.172Z,19.40
2019-03-24T10:34:55.327Z,19.70
2019-03-24T10:39:51.398Z,19.90
2019-03-24T10:44:47.512Z,20.20
2019-03-24T10:49:44.657Z,20.40
2019-03-24T10:54:40.781Z,20.60
2019-03-24T10:59:36.898Z,21.00
2019-03-24T11:04:33.029Z,21.20
2019-03-24T11:09:29.134Z,21.60
2019-03-24T11:14:25.347Z,22.10
2019-03-24T11:19:21.815Z,22.30
2019-03-24T11:24:18.055Z,22.60
2019-03-24T11:29:14.153Z,22.90
2019-03-24T11:34:10.266Z,22.80
2019-03-24T11:39:08.040Z,23.10
2019-03-24T11:44:04.352Z,23.40
2019-03-24T11:49:00.476Z,23.50
2019-03-24T11:53:56.679Z,23.50
2019-03-24T11:58:52.883Z,23.80
2019-03-24T12:03:49.119Z,23.90
2019-03-24T12:08:45.312Z,24.00
2019-03-24T12:13:41.453Z,24.10
2019-03-24T12:18:37.541Z,24.20
2019-03-24T12:23:33.701Z,24.10
2019-03-24T12:28:29.855Z,24.50
2019-03-24T12:33:26.322Z,24.50
2019-03-24T12:38:22.608Z,24.80
2019-03-24T12:43:19.946Z,24.70
2019-03-24T12:48:17.255Z,24.90
2019-03-24T12:53:14.377Z,25.30
2019-03-24T12:58:10.687Z,25.40
2019-03-24T13:03:07.060Z,25.40
2019-03-24T13:08:13.390Z,25.60
2019-03-24T13:13:09.489Z,25.50
2019-03-24T13:18:06.679Z,25.80
2019-03-24T13:23:02.845Z,25.80
2019-03-24T13:27:59.199Z,25.80
2019-03-24T13:32:55.398Z,26.10
2019-03-24T13:37:51.480Z,26.40
2019-03-24T13:42:47.582Z,26.30
2019-03-24T13:47:43.781Z,26.20
2019-03-24T13:52:39.973Z,26.10
2019-03-24T13:57:36.329Z,26.20
2019-03-24T14:02:32.496Z,26.50
2019-03-24T14:07:28.696Z,26.80
2019-03-24T14:12:24.818Z,26.90
2019-03-24T14:17:21.064Z,26.90
2019-03-24T14:22:18.441Z,27.00
2019-03-24T14:27:15.752Z,27.40
2019-03-24T14:32:12.025Z,27.40
2019-03-24T14:37:08.347Z,27.90
2019-03-24T14:42:05.977Z,29.20
2019-03-24T14:47:02.203Z,29.80
2019-03-24T14:51:58.354Z,30.50
2019-03-24T14:56:54.521Z,31.00
2019-03-24T15:01:50.743Z,31.20
2019-03-24T15:06:46.862Z,31.40
2019-03-24T15:11:42.977Z,31.80
2019-03-24T15:16:40.101Z,31.80
2019-03-24T15:21:39.706Z,32.00
2019-03-24T15:26:35.845Z,32.50
2019-03-24T15:31:31.956Z,32.40
2019-03-24T15:36:28.124Z,32.60
2019-03-24T15:41:24.225Z,32.70
2019-03-24T15:46:20.585Z,33.00
2019-03-24T15:51:17.381Z,32.70
2019-03-24T15:56:13.668Z,32.40
2019-03-24T16:01:09.928Z,31.60
2019-03-24T16:06:05.998Z,31.40
2019-03-24T16:11:05.683Z,31.10
2019-03-24T16:16:02.240Z,29.00
2019-03-24T16:20:58.439Z,26.10
2019-03-24T16:25:55.864Z,24.40
2019-03-24T16:30:52.130Z,23.50
2019-03-24T16:35:49.428Z,22.90
2019-03-24T16:40:45.727Z,22.50
2019-03-24T16:45:41.955Z,22.00
2019-03-24T16:50:38.118Z,21.60
2019-03-24T16:55:34.862Z,21.20
2019-03-24T17:00:31.918Z,20.90
2019-03-24T17:05:28.084Z,20.70
2019-03-24T17:10:24.250Z,20.30
2019-03-24T17:15:20.569Z,19.90
2019-03-24T17:20:16.925Z,19.40
2019-03-24T17:25:13.225Z,19.20
2019-03-24T17:30:11.236Z,18.90
2019-03-24T17:35:08.667Z,18.70
2019-03-24T17:40:05.520Z,18.40
2019-03-24T17:45:04.029Z,18.20
2019-03-24T17:50:00.376Z,17.90
2019-03-24T17:54:57.606Z,17.60
2019-03-24T17:59:54.741Z,17.40
2019-03-24T18:04:50.955Z,17.20
2019-03-24T18:09:47.144Z,17.00
2019-03-24T18:14:43.260Z,16.70
2019-03-24T18:19:40.053Z,16.50
2019-03-24T18:24:36.966Z,16.20
2019-03-24T18:29:33.979Z,16.00
2019-03-24T18:34:30.185Z,15.70
2019-03-24T18:39:26.391Z,15.60
2019-03-24T18:44:22.604Z,15.30
2019-03-24T18:49:18.807Z,15.00
2019-03-24T18:54:17.440Z,14.90
2019-03-24T18:59:13.572Z,14.80
2019-03-24T19:04:10.064Z,14.60
2019-03-24T19:09:09.259Z,14.50
2019-03-24T19:14:05.442Z,14.30
2019-03-24T19:19:03.983Z,14.10
2019-03-24T19:24:02.567Z,14.00
2019-03-24T19:28:59.153Z,13.70
2019-03-24T19:33:55.492Z,13.40
2019-03-24T19:38:55.068Z,13.10
2019-03-24T19:43:51.566Z,13.00
2019-03-24T19:48:48.165Z,12.90
2019-03-24T19:53:46.275Z,12.70
2019-03-24T19:58:46.400Z,12.60
2019-03-24T20:03:43.995Z,12.50
2019-03-24T20:08:43.497Z,12.40
2019-03-24T20:13:41.971Z,12.20
2019-03-24T20:18:40.449Z,12.10
2019-03-24T20:23:36.597Z,11.90
2019-03-24T20:28:33.377Z,11.80
2019-03-24T20:33:32.402Z,11.60
2019-03-24T20:38:31.269Z,11.50
2019-03-24T20:43:27.493Z,11.40
2019-03-24T20:48:25.943Z,11.30
2019-03-24T20:53:22.195Z,11.30
2019-03-24T20:58:18.693Z,11.10
2019-03-24T21:03:15.889Z,10.90
2019-03-24T21:08:12.970Z,10.80
2019-03-24T21:13:11.162Z,10.70
2019-03-24T21:18:07.372Z,10.60
2019-03-24T21:23:05.636Z,10.50
2019-03-24T21:28:03.671Z,10.50
2019-03-24T21:33:01.637Z,10.40
2019-03-24T21:37:57.881Z,10.20
2019-03-24T21:42:55.295Z,10.10
2019-03-24T21:47:51.415Z,9.90
2019-03-24T21:52:47.600Z,9.90
2019-03-24T21:57:43.727Z,9.80
2019-03-24T22:02:40.964Z,9.80
2019-03-24T22:07:37.189Z,9.80
2019-03-24T22:12:33.284Z,9.70
2019-03-24T22:17:29.395Z,9.60
2019-03-24T22:22:25.567Z,9.50
2019-03-24T22:27:22.096Z,9.60
2019-03-24T22:32:18.236Z,9.50
2019-03-24T22:37:16.124Z,9.40
2019-03-24T22:42:14.300Z,9.40
2019-03-24T22:47:10.445Z,9.50
2019-03-24T22:52:07.672Z,9.50
2019-03-24T22:57:04.136Z,9.50
2019-03-24T23:02:00.311Z,9.60
2019-03-24T23:06:57.505Z,9.60
2019-03-24T23:11:53.708Z,9.60
2019-03-24T23:16:49.834Z,9.40
2019-03-24T23:21:45.847Z,9.30
2019-03-24T23:26:42.023Z,9.30
2019-03-24T23:31:38.213Z,9.40
2019-03-24T23:36:34.512Z,9.40
2019-03-24T23:41:30.728Z,9.40
2019-03-24T23:46:26.909Z,9.40
2019-03-24T23:51:23.056Z,9.30
2019-03-24T23:56:19.090Z,9.30
